Time;durP1;ratioP1;P1;durP2;ratioP2;P2;SDS_P1;SDS_P2;PMS_P1;PMS_P2;Temp;Humidity;BMP_temperature;BMP_pressure;BME280_temperature;BME280_humidity;BME280_pressure;Samples;Min_cycle;Max_cycle;Signal;HPM_P1;HPM_P2
2023/09/06 00:00:45;;;;;;;;;;;;;;;20.93;53.60;100855.06;4976303;28;7039;-77
2023/09/06 00:03:11;;;;;;;;;;;;;;;20.86;53.95;100851.53;4967930;28;7253;-76
2023/09/06 00:05:41;;;;;;;;;;;;;;;20.83;54.12;100848.84;4965397;28;6792;-76
2023/09/06 00:08:14;;;;;;;;;;;;;;;20.80;54.47;100854.00;4976400;28;7012;-77
2023/09/06 00:10:41;;;;;;;;;;;;;;;20.81;54.54;100855.75;4966059;28;6811;-77
2023/09/06 00:13:07;;;;;;;;;;;;;;;20.83;54.51;100853.22;4978561;28;6803;-77
2023/09/06 00:15:33;;;;;;;;;;;;;;;20.85;54.69;100851.50;4976944;28;7060;-76
2023/09/06 00:17:58;;;;;;;;;;;;;;;20.85;54.79;100852.34;4970467;28;7135;-77
2023/09/06 00:20:24;;;;;;;;;;;;;;;20.84;54.50;100855.81;4953842;28;6927;-76
2023/09/06 00:23:04;;;;;;;;;;;;;;;20.83;54.58;100851.47;4944551;28;7186;-75
2023/09/06 00:25:31;;;;;;;;;;;;;;;20.80;54.92;100854.88;4941669;28;6820;-76
2023/09/06 00:27:58;;;;;;;;;;;;;;;20.81;54.48;100853.16;4939894;28;7268;-76
2023/09/06 00:30:24;;;;;;;;;;;;;;;20.79;54.76;100852.25;4971460;28;6808;-76
2023/09/06 00:32:52;;;;;;;;;;;;;;;20.80;54.76;100854.00;4990472;28;6872;-76
2023/09/06 00:35:18;;;;;;;;;;;;;;;20.82;54.87;100857.53;4960800;28;6999;-76
2023/09/06 00:37:44;;;;;;;;;;;;;;;20.79;54.72;100857.47;4962337;28;6894;-76
2023/09/06 00:40:21;;;;;;;;;;;;;;;20.79;54.88;100854.88;4986575;28;7205;-75
2023/09/06 00:42:51;;;;;;;;;;;;;;;20.80;54.81;100848.81;4969203;28;6916;-76
2023/09/06 00:45:21;;;;;;;;;;;;;;;20.83;55.12;100850.59;4996478;28;7197;-76
2023/09/06 00:47:49;;;;;;;;;;;;;;;20.85;54.94;100852.34;4962106;28;7050;-76
2023/09/06 00:50:16;;;;;;;;;;;;;;;20.87;55.16;100850.66;4961718;28;7391;-76
2023/09/06 00:52:42;;;;;;;;;;;;;;;20.88;55.10;100847.19;4963561;28;6815;-76
2023/09/06 00:59:00;;;;;;;;;;;;;;;20.88;54.60;100847.19;4944279;28;7153;-75
2023/09/06 01:01:26;;;;;;;;;;;;;;;20.86;54.83;100845.44;4943888;28;7254;-77
2023/09/06 01:03:52;;;;;;;;;;;;;;;20.85;54.82;100849.75;4974382;28;7039;-77
2023/09/06 01:06:28;;;;;;;;;;;;;;;20.84;54.86;100850.59;4956397;28;7172;-76
2023/09/06 01:09:02;;;;;;;;;;;;;;;20.85;54.58;100851.50;4964699;28;6935;-77
2023/09/06 01:11:28;;;;;;;;;;;;;;;20.89;55.10;100853.28;4992966;28;6978;-76
2023/09/06 01:13:55;;;;;;;;;;;;;;;20.93;54.80;100860.28;4969425;28;6954;-77
2023/09/06 01:16:29;;;;;;;;;;;;;;;20.98;54.91;100861.19;4962294;28;7235;-76
2023/09/06 01:18:56;;;;;;;;;;;;;;;21.02;54.88;100859.50;4975671;28;6993;-76
2023/09/06 01:21:26;;;;;;;;;;;;;;;21.06;54.85;100861.31;4972413;28;6788;-76
2023/09/06 01:23:53;;;;;;;;;;;;;;;21.09;54.79;100863.94;4995592;28;6792;-75
2023/09/06 01:26:19;;;;;;;;;;;;;;;21.10;54.70;100860.47;4973978;28;6820;-77
2023/09/06 01:28:45;;;;;;;;;;;;;;;21.12;54.54;100856.16;4977246;28;7391;-76
2023/09/06 01:31:10;;;;;;;;;;;;;;;21.11;54.49;100856.16;4952909;28;6984;-76
2023/09/06 01:33:36;;;;;;;;;;;;;;;21.08;54.61;100864.81;4991657;28;6787;-76
2023/09/06 01:36:01;;;;;;;;;;;;;;;21.04;54.40;100868.22;4959156;28;6982;-75
2023/09/06 01:38:27;;;;;;;;;;;;;;;20.99;54.43;100864.69;4969498;28;7128;-76
2023/09/06 01:40:54;;;;;;;;;;;;;;;20.91;54.23;100860.25;4978494;28;7244;-77
2023/09/06 01:43:19;;;;;;;;;;;;;;;20.83;54.28;100866.25;4961106;28;6875;-77
2023/09/06 01:45:48;;;;;;;;;;;;;;;20.72;54.20;100866.06;4977266;28;6787;-77
2023/09/06 01:48:14;;;;;;;;;;;;;;;20.62;54.45;100865.06;4987601;28;8046;-76
2023/09/06 01:50:41;;;;;;;;;;;;;;;20.51;54.72;100857.09;4962028;28;7266;-77
2023/09/06 01:53:07;;;;;;;;;;;;;;;20.40;55.06;100859.53;4991483;28;7760;-77
2023/09/06 01:55:32;;;;;;;;;;;;;;;20.34;55.16;100856.84;4967327;28;8561;-77
2023/09/06 01:57:58;;;;;;;;;;;;;;;20.28;55.29;100857.63;4964502;28;9780;-77
2023/09/06 02:00:31;;;;;;;;;;;;;;;20.22;55.42;100855.78;4960027;28;7303;-77
2023/09/06 02:02:59;;;;;;;;;;;;;;;20.16;55.56;100850.50;4963588;28;7072;-75
2023/09/06 02:05:25;;;;;;;;;;;;;;;20.09;55.68;100857.34;4994502;28;6812;-77
2023/09/06 02:07:50;;;;;;;;;;;;;;;20.05;55.98;100857.28;4981013;28;6940;-76
2023/09/06 02:10:17;;;;;;;;;;;;;;;19.99;56.20;100847.66;4964034;28;6780;-76
2023/09/06 02:12:42;;;;;;;;;;;;;;;19.95;56.16;100856.25;4992821;28;6859;-77
2023/09/06 02:15:08;;;;;;;;;;;;;;;19.89;56.44;100854.38;4963110;28;6788;-76
2023/09/06 02:17:37;;;;;;;;;;;;;;;19.84;56.45;100864.69;4978813;28;6827;-77
2023/09/06 02:22:57;;;;;;;;;;;;;;;19.73;56.71;100850.66;4953567;28;7356;-77
2023/09/06 02:25:31;;;;;;;;;;;;;;;19.71;57.09;100849.75;4980488;28;6846;-74
2023/09/06 02:27:57;;;;;;;;;;;;;;;19.66;57.08;100852.28;4961632;28;6971;-75
2023/09/06 02:30:23;;;;;;;;;;;;;;;19.60;56.84;100849.56;4996078;28;7145;-75
2023/09/06 02:32:49;;;;;;;;;;;;;;;19.59;57.58;100860.81;4959410;28;6847;-73
2023/09/06 02:35:14;;;;;;;;;;;;;;;19.60;57.65;100851.25;4962710;28;6933;-74
2023/09/06 02:37:40;;;;;;;;;;;;;;;19.60;57.43;100856.47;4962139;28;7232;-75
2023/09/06 02:40:08;;;;;;;;;;;;;;;19.62;57.96;100858.25;4962607;28;6799;-74
2023/09/06 02:42:36;;;;;;;;;;;;;;;19.66;57.66;100853.97;4965379;28;6976;-74
2023/09/06 02:45:04;;;;;;;;;;;;;;;19.69;57.92;100854.03;4966917;28;6811;-74
2023/09/06 02:47:30;;;;;;;;;;;;;;;19.72;57.86;100843.69;4957671;28;7353;-75
2023/09/06 02:49:56;;;;;;;;;;;;;;;19.75;57.64;100854.13;4965926;28;6801;-74
2023/09/06 02:52:30;;;;;;;;;;;;;;;19.76;57.58;100850.69;4974546;28;6854;-74
2023/09/06 02:55:01;;;;;;;;;;;;;;;19.78;57.87;100853.31;4976722;28;7247;-74
2023/09/06 02:57:27;;;;;;;;;;;;;;;19.81;57.89;100854.25;4961499;28;9060;-75
2023/09/06 02:59:53;;;;;;;;;;;;;;;19.83;58.21;100851.66;4979215;28;7052;-74
2023/09/06 03:02:20;;;;;;;;;;;;;;;19.84;58.14;100859.50;4957304;28;6991;-76
2023/09/06 03:04:45;;;;;;;;;;;;;;;19.83;57.57;100860.34;4979912;28;7149;-76
2023/09/06 03:07:11;;;;;;;;;;;;;;;19.81;57.60;100855.97;4979378;28;6959;-76
2023/09/06 03:09:38;;;;;;;;;;;;;;;19.79;57.47;100857.69;4992847;28;6954;-77
2023/09/06 03:12:14;;;;;;;;;;;;;;;19.77;57.19;100861.97;4966217;28;6800;-77
2023/09/06 03:14:44;;;;;;;;;;;;;;;19.75;57.50;100858.44;4952255;28;7094;-75
2023/09/06 03:17:18;;;;;;;;;;;;;;;19.73;57.71;100860.16;4975666;28;9784;-76
2023/09/06 03:19:45;;;;;;;;;;;;;;;19.72;57.98;100872.31;4981059;28;7603;-76
2023/09/06 03:22:12;;;;;;;;;;;;;;;19.68;57.57;100873.06;4979607;28;6804;-76
2023/09/06 03:24:43;;;;;;;;;;;;;;;19.62;57.75;100863.44;4956149;28;6827;-76
2023/09/06 03:27:10;;;;;;;;;;;;;;;19.57;57.65;100873.75;4959663;28;6967;-76
2023/09/06 03:29:38;;;;;;;;;;;;;;;19.52;57.72;100867.63;4955791;28;6986;-75
2023/09/06 03:32:08;;;;;;;;;;;;;;;19.50;57.95;100869.28;4953844;28;8451;-76
2023/09/06 03:34:37;;;;;;;;;;;;;;;19.47;58.35;100873.59;4978319;28;7041;-76
2023/09/06 03:37:08;;;;;;;;;;;;;;;19.41;57.88;100875.19;4963806;28;6808;-77
2023/09/06 03:39:42;;;;;;;;;;;;;;;19.39;57.97;100870.81;4979812;28;7373;-76
2023/09/06 03:42:08;;;;;;;;;;;;;;;19.37;58.76;100870.81;4957505;28;7070;-76
2023/09/06 03:44:37;;;;;;;;;;;;;;;19.38;58.21;100874.25;4991130;28;6879;-76
2023/09/06 03:47:05;;;;;;;;;;;;;;;19.39;58.61;100868.22;4969484;28;6821;-77
2023/09/06 03:49:35;;;;;;;;;;;;;;;19.42;58.97;100865.69;4959679;28;6978;-75
2023/09/06 03:52:04;;;;;;;;;;;;;;;19.43;58.49;100873.50;4964895;28;6832;-76
2023/09/06 03:54:32;;;;;;;;;;;;;;;19.48;58.65;100875.34;4952675;28;6983;-77
2023/09/06 03:56:57;;;;;;;;;;;;;;;19.51;58.44;100878.88;4968775;28;6976;-77
2023/09/06 03:59:24;;;;;;;;;;;;;;;19.53;59.04;100873.69;4981127;28;6988;-77
2023/09/06 04:01:49;;;;;;;;;;;;;;;19.55;58.32;100877.16;4949990;28;6796;-76
2023/09/06 04:04:15;;;;;;;;;;;;;;;19.57;58.40;100886.75;4977933;28;6787;-76
2023/09/06 04:06:43;;;;;;;;;;;;;;;19.59;58.28;100881.59;4975132;28;6776;-76
2023/09/06 04:09:13;;;;;;;;;;;;;;;19.59;58.37;100883.31;4962699;28;7083;-77
2023/09/06 04:11:40;;;;;;;;;;;;;;;19.59;58.47;100880.72;4955893;28;7286;-76
2023/09/06 04:14:05;;;;;;;;;;;;;;;19.56;58.23;100890.22;4954406;28;7027;-76
2023/09/06 04:16:31;;;;;;;;;;;;;;;19.57;58.46;100886.75;4956354;28;7023;-76
2023/09/06 04:18:56;;;;;;;;;;;;;;;19.55;58.37;100885.88;4977519;28;6966;-77
2023/09/06 04:21:22;;;;;;;;;;;;;;;19.54;58.70;100888.41;4949037;28;7225;-75
2023/09/06 04:23:48;;;;;;;;;;;;;;;19.51;58.70;100889.25;4976726;28;7312;-76
2023/09/06 04:26:14;;;;;;;;;;;;;;;19.46;58.62;100890.00;4962385;28;6804;-77
2023/09/06 04:28:40;;;;;;;;;;;;;;;19.43;58.08;100896.03;4959650;28;6883;-76
2023/09/06 04:31:06;;;;;;;;;;;;;;;19.38;58.27;100895.94;4974773;28;7178;-76
2023/09/06 04:33:31;;;;;;;;;;;;;;;19.33;58.64;100901.91;4958905;28;6975;-76
2023/09/06 04:35:57;;;;;;;;;;;;;;;19.26;58.39;100898.28;4962567;28;7103;-76
2023/09/06 04:38:23;;;;;;;;;;;;;;;19.19;58.13;100899.88;4963223;28;6967;-77
2023/09/06 04:40:49;;;;;;;;;;;;;;;19.11;58.43;100893.66;4966645;28;6796;-78
2023/09/06 04:43:16;;;;;;;;;;;;;;;19.05;58.51;100899.59;4968280;28;6799;-78
2023/09/06 04:45:42;;;;;;;;;;;;;;;18.99;58.85;100896.84;4977214;28;7063;-78
2023/09/06 04:48:10;;;;;;;;;;;;;;;18.95;59.13;100901.09;4964104;28;6791;-77
2023/09/06 04:50:39;;;;;;;;;;;;;;;18.91;58.54;100906.19;4965305;28;6875;-77
2023/09/06 04:53:05;;;;;;;;;;;;;;;18.83;59.05;100901.72;4950692;28;6956;-77
2023/09/06 04:55:35;;;;;;;;;;;;;;;18.78;59.37;100912.84;4978656;28;6820;-78
2023/09/06 04:58:05;;;;;;;;;;;;;;;18.73;59.39;100907.53;4979447;28;7010;-78
2023/09/06 05:00:37;;;;;;;;;;;;;;;18.69;59.38;100904.00;4954893;28;7382;-77
2023/09/06 05:03:05;;;;;;;;;;;;;;;18.66;59.24;100909.13;4956574;28;6995;-76
2023/09/06 05:05:31;;;;;;;;;;;;;;;18.65;59.66;100911.69;4992812;28;6815;-77
2023/09/06 05:07:56;;;;;;;;;;;;;;;18.62;59.59;100902.09;4969695;28;6957;-76
2023/09/06 05:10:22;;;;;;;;;;;;;;;18.61;60.08;100910.72;4992393;28;6855;-77
2023/09/06 05:12:48;;;;;;;;;;;;;;;18.62;60.21;100909.88;4968627;28;6783;-77
2023/09/06 05:15:13;;;;;;;;;;;;;;;18.62;60.28;100904.69;4993862;28;6972;-77
2023/09/06 05:17:40;;;;;;;;;;;;;;;18.61;59.84;100910.72;4949990;28;7301;-77
2023/09/06 05:20:27;;;;;;;;;;;;;;;18.60;59.65;100914.16;4966051;28;7040;-76
2023/09/06 05:23:04;;;;;;;;;;;;;;;18.57;60.12;100914.97;4971269;28;6852;-77
2023/09/06 05:25:31;;;;;;;;;;;;;;;18.58;59.66;100924.50;4974631;28;7355;-76
2023/09/06 05:27:58;;;;;;;;;;;;;;;18.57;59.85;100930.53;4960842;28;6972;-76
2023/09/06 05:30:25;;;;;;;;;;;;;;;18.56;60.41;100923.59;4968233;28;7070;-76
2023/09/06 05:32:50;;;;;;;;;;;;;;;18.56;59.83;100922.75;4972443;28;6974;-75
2023/09/06 05:35:16;;;;;;;;;;;;;;;18.57;60.54;100930.53;4967232;28;7014;-77
2023/09/06 05:37:41;;;;;;;;;;;;;;;18.59;60.12;100934.06;4967448;28;7712;-75
2023/09/06 05:40:08;;;;;;;;;;;;;;;18.62;60.15;100929.78;4970370;28;7089;-77
2023/09/06 05:42:34;;;;;;;;;;;;;;;18.64;60.65;100929.00;4968258;28;7055;-75
2023/09/06 05:45:00;;;;;;;;;;;;;;;18.69;60.94;100929.94;4975463;28;6951;-75
2023/09/06 05:47:25;;;;;;;;;;;;;;;18.74;60.95;100936.16;4979114;28;7026;-77
2023/09/06 05:49:55;;;;;;;;;;;;;;;18.80;60.67;100932.81;4964963;28;6776;-76
2023/09/06 05:52:21;;;;;;;;;;;;;;;18.88;60.85;100930.38;4967052;28;7007;-77
2023/09/06 05:54:48;;;;;;;;;;;;;;;18.95;60.77;100932.28;4980380;28;6986;-78
2023/09/06 05:57:14;;;;;;;;;;;;;;;19.03;60.88;100929.88;4959219;28;7130;-77
2023/09/06 05:59:39;;;;;;;;;;;;;;;19.11;61.18;100923.13;4961862;28;7310;-77
2023/09/06 06:02:05;;;;;;;;;;;;;;;19.23;61.33;100913.81;4962089;28;7134;-76
2023/09/06 06:04:31;;;;;;;;;;;;;;;19.31;61.11;100919.16;4994325;28;7175;-77
2023/09/06 06:06:56;;;;;;;;;;;;;;;19.41;61.38;100924.59;4967693;28;7122;-77
2023/09/06 06:09:24;;;;;;;;;;;;;;;19.51;61.00;100927.38;4967737;28;7408;-77
2023/09/06 06:11:53;;;;;;;;;;;;;;;19.63;61.54;100929.34;4997149;28;6872;-76
2023/09/06 06:14:19;;;;;;;;;;;;;;;19.71;61.01;100930.38;4978829;28;7006;-75
2023/09/06 06:16:44;;;;;;;;;;;;;;;19.81;60.93;100932.28;4961006;28;6792;-77
2023/09/06 06:19:10;;;;;;;;;;;;;;;19.90;60.66;100930.69;4960633;28;7150;-76
2023/09/06 06:21:35;;;;;;;;;;;;;;;19.99;60.96;100930.91;4973229;28;6787;-77
2023/09/06 06:24:01;;;;;;;;;;;;;;;20.09;60.51;100934.53;4960282;28;7126;-76
2023/09/06 06:26:27;;;;;;;;;;;;;;;20.18;60.64;100941.59;4978408;28;6978;-77
2023/09/06 06:28:53;;;;;;;;;;;;;;;20.25;60.33;100933.03;4963814;28;6856;-77
2023/09/06 06:31:19;;;;;;;;;;;;;;;20.32;60.14;100929.69;4976129;28;7102;-76
2023/09/06 06:33:44;;;;;;;;;;;;;;;20.39;59.90;100936.75;4979706;28;6976;-77
2023/09/06 06:36:10;;;;;;;;;;;;;;;20.47;60.00;100935.97;4971770;28;7242;-75
2023/09/06 06:38:35;;;;;;;;;;;;;;;20.56;59.61;100937.88;4976488;28;7348;-76
2023/09/06 06:41:01;;;;;;;;;;;;;;;20.64;59.81;100934.53;4982290;28;7191;-76
2023/09/06 06:43:27;;;;;;;;;;;;;;;20.73;59.79;100932.91;4999630;28;6791;-76
2023/09/06 06:45:54;;;;;;;;;;;;;;;20.83;59.72;100928.75;4970178;28;7003;-76
2023/09/06 06:48:20;;;;;;;;;;;;;;;20.93;59.73;100931.50;4967798;28;6856;-76
2023/09/06 06:50:46;;;;;;;;;;;;;;;21.03;59.65;100939.44;4973945;28;6800;-76
2023/09/06 06:53:11;;;;;;;;;;;;;;;21.12;59.20;100938.69;4969348;28;6784;-76
2023/09/06 06:55:37;;;;;;;;;;;;;;;21.21;59.29;100937.06;4984639;28;6783;-76
2023/09/06 06:58:07;;;;;;;;;;;;;;;21.32;59.10;100941.53;4986523;28;6996;-77
2023/09/06 07:00:35;;;;;;;;;;;;;;;21.41;59.12;100946.84;4990671;28;7009;-76
2023/09/06 07:03:01;;;;;;;;;;;;;;;21.49;58.62;100942.59;4969405;28;7046;-76
2023/09/06 07:05:27;;;;;;;;;;;;;;;21.58;58.51;100948.78;4985021;28;6791;-76
2023/09/06 07:07:52;;;;;;;;;;;;;;;21.66;58.78;100941.94;4983920;28;6995;-76
2023/09/06 07:10:18;;;;;;;;;;;;;;;21.74;58.85;100942.94;5000832;28;6981;-75
2023/09/06 07:12:43;;;;;;;;;;;;;;;21.84;58.36;100954.31;4984313;28;7393;-76
2023/09/06 07:15:10;;;;;;;;;;;;;;;21.95;58.63;100957.03;4984009;28;6967;-76
2023/09/06 07:17:35;;;;;;;;;;;;;;;22.04;58.63;100948.41;4983201;28;6787;-76
2023/09/06 07:20:01;;;;;;;;;;;;;;;22.16;58.41;100953.75;4984040;28;6772;-76
2023/09/06 07:22:26;;;;;;;;;;;;;;;22.27;57.88;100947.75;4971038;28;6964;-76
2023/09/06 07:24:52;;;;;;;;;;;;;;;22.37;57.98;100946.97;4982369;28;7025;-76
2023/09/06 07:27:17;;;;;;;;;;;;;;;22.47;57.80;100947.91;4968421;28;6930;-76
2023/09/06 07:29:43;;;;;;;;;;;;;;;22.59;57.69;100950.63;4983865;28;7277;-76
2023/09/06 07:32:08;;;;;;;;;;;;;;;22.71;57.33;100946.38;4972534;28;6987;-75
2023/09/06 07:34:34;;;;;;;;;;;;;;;22.82;57.52;100939.47;4974456;28;7159;-77
2023/09/06 07:36:59;;;;;;;;;;;;;;;22.94;57.25;100943.00;4982423;28;6768;-74
2023/09/06 07:39:25;;;;;;;;;;;;;;;23.05;57.03;100935.22;4983187;28;6952;-74
2023/09/06 07:41:51;;;;;;;;;;;;;;;23.18;56.75;100939.63;4973595;28;6811;-75
2023/09/06 07:44:18;;;;;;;;;;;;;;;23.31;55.93;100937.97;4967294;28;6788;-74
2023/09/06 07:46:48;;;;;;;;;;;;;;;23.43;55.88;100940.63;4974664;28;6993;-73
2023/09/06 07:49:18;;;;;;;;;;;;;;;23.56;54.99;100938.03;4997363;28;6832;-74
2023/09/06 07:51:44;;;;;;;;;;;;;;;23.70;54.99;100941.56;4967050;28;6983;-73
2023/09/06 07:54:10;;;;;;;;;;;;;;;23.82;54.76;100934.59;4967714;28;6975;-74
2023/09/06 07:56:35;;;;;;;;;;;;;;;23.95;54.78;100940.72;4982955;28;6978;-75
2023/09/06 07:59:01;;;;;;;;;;;;;;;24.07;54.27;100939.91;4967229;28;6961;-75
2023/09/06 08:01:26;;;;;;;;;;;;;;;24.18;53.68;100946.03;4972501;28;6890;-73
2023/09/06 08:03:52;;;;;;;;;;;;;;;24.29;53.58;100946.03;4998855;28;6864;-73
2023/09/06 08:06:17;;;;;;;;;;;;;;;24.39;53.06;100941.66;4983126;28;7032;-73
2023/09/06 08:08:43;;;;;;;;;;;;;;;24.50;52.46;100949.50;4982193;28;6811;-74
2023/09/06 08:11:09;;;;;;;;;;;;;;;24.63;52.70;100945.13;4966965;28;7195;-73
2023/09/06 08:13:37;;;;;;;;;;;;;;;24.74;51.99;100942.47;4998364;28;6958;-73
2023/09/06 08:16:02;;;;;;;;;;;;;;;24.87;52.23;100940.72;4967337;28;6807;-73
2023/09/06 08:18:28;;;;;;;;;;;;;;;24.98;51.62;100941.56;4966110;28;6859;-73
2023/09/06 08:20:54;;;;;;;;;;;;;;;25.08;51.71;100943.25;4970698;28;6799;-74
2023/09/06 08:23:19;;;;;;;;;;;;;;;25.20;51.07;100944.09;4966306;28;7243;-73
2023/09/06 08:25:46;;;;;;;;;;;;;;;25.30;50.99;100943.19;4968172;28;6791;-74
2023/09/06 08:28:14;;;;;;;;;;;;;;;25.42;50.84;100944.00;4971670;28;7178;-74
2023/09/06 08:30:41;;;;;;;;;;;;;;;25.52;50.19;100943.97;4970395;28;6808;-74
2023/09/06 08:33:07;;;;;;;;;;;;;;;25.62;49.37;100944.78;4983038;28;6804;-75
2023/09/06 08:35:32;;;;;;;;;;;;;;;25.71;49.21;100953.50;4966446;28;6850;-74
2023/09/06 08:37:58;;;;;;;;;;;;;;;25.75;49.14;100942.97;4981837;28;7007;-74
2023/09/06 08:40:24;;;;;;;;;;;;;;;25.83;48.98;100945.53;4967239;28;6995;-73
2023/09/06 08:42:50;;;;;;;;;;;;;;;25.89;48.51;100948.13;4971012;28;7039;-73
2023/09/06 08:45:21;;;;;;;;;;;;;;;25.97;48.72;100947.16;4981795;28;7053;-74
2023/09/06 08:47:48;;;;;;;;;;;;;;;26.05;48.22;100945.38;4964854;28;7224;-74
2023/09/06 08:50:14;;;;;;;;;;;;;;;26.14;48.13;100952.31;4997593;28;7292;-73
2023/09/06 08:52:42;;;;;;;;;;;;;;;26.24;47.95;100958.38;4972507;28;7122;-74
2023/09/06 08:55:10;;;;;;;;;;;;;;;26.33;47.96;100960.94;4998284;28;6799;-73
2023/09/06 08:57:37;;;;;;;;;;;;;;;26.42;47.92;100960.84;4981190;28;6820;-75
2023/09/06 09:00:04;;;;;;;;;;;;;;;26.51;47.44;100957.28;4981230;28;7002;-74
2023/09/06 09:02:30;;;;;;;;;;;;;;;26.62;47.96;100954.53;4966929;28;7047;-76
2023/09/06 09:04:55;;;;;;;;;;;;;;;26.71;47.28;100946.53;4965356;28;6983;-75
2023/09/06 09:07:21;;;;;;;;;;;;;;;26.81;46.41;100949.06;4981935;28;6859;-74
2023/09/06 09:10:09;;;;;;;;;;;;;;;26.92;46.29;100949.84;4965568;28;7046;-73
2023/09/06 09:12:36;;;;;;;;;;;;;;;27.00;45.92;100940.13;4975051;28;7208;-75
2023/09/06 09:15:03;;;;;;;;;;;;;;;27.10;45.92;100946.16;4998638;28;6867;-76
2023/09/06 09:17:30;;;;;;;;;;;;;;;27.22;45.96;100945.09;4980399;28;6783;-74
2023/09/06 09:19:57;;;;;;;;;;;;;;;27.34;46.08;100943.22;4980907;28;6829;-73
2023/09/06 09:22:35;;;;;;;;;;;;;;;27.47;45.76;100949.16;4985365;28;6800;-75
2023/09/06 09:25:04;;;;;;;;;;;;;;;27.56;45.11;100939.44;5004629;28;7017;-73
2023/09/06 09:27:31;;;;;;;;;;;;;;;27.69;45.09;100945.38;5004526;28;6943;-73
2023/09/06 09:30:00;;;;;;;;;;;;;;;27.80;44.58;100949.63;4987545;28;6966;-74
2023/09/06 09:32:25;;;;;;;;;;;;;;;27.90;44.40;100945.06;5003979;28;6856;-74
2023/09/06 09:34:52;;;;;;;;;;;;;;;28.00;43.99;100938.75;4988329;28;7043;-74
2023/09/06 09:37:19;;;;;;;;;;;;;;;28.14;44.50;100939.41;4975436;28;6993;-74
2023/09/06 09:39:44;;;;;;;;;;;;;;;28.25;44.05;100938.38;4986924;28;7155;-74
2023/09/06 09:42:11;;;;;;;;;;;;;;;28.38;42.92;100942.53;4988950;28;6803;-74
2023/09/06 09:44:37;;;;;;;;;;;;;;;28.51;42.85;100944.97;4971589;28;7284;-75
2023/09/06 09:47:11;;;;;;;;;;;;;;;28.65;43.26;100939.44;5004086;28;6961;-73
2023/09/06 09:49:39;;;;;;;;;;;;;;;28.77;42.29;100936.56;5002880;28;6819;-75
2023/09/06 09:52:09;;;;;;;;;;;;;;;28.90;42.49;100934.56;4968761;28;7001;-75
2023/09/06 09:54:40;;;;;;;;;;;;;;;29.04;42.11;100936.06;4971818;28;7006;-74
2023/09/06 09:57:06;;;;;;;;;;;;;;;29.24;42.46;100933.00;5002501;28;7032;-75
2023/09/06 09:59:36;;;;;;;;;;;;;;;29.52;41.80;100930.63;4987977;28;6840;-74
2023/09/06 10:02:04;;;;;;;;;;;;;;;30.02;42.43;100932.09;4947849;28;7004;-75
2023/09/06 10:04:35;;;;;;;;;;;;;;;31.04;40.74;100930.31;5003913;28;6784;-76
2023/09/06 10:07:04;;;;;;;;;;;;;;;32.28;38.87;100928.19;4987455;28;7279;-74
2023/09/06 10:09:31;;;;;;;;;;;;;;;33.54;37.26;100922.72;4973821;28;6931;-74
2023/09/06 10:11:59;;;;;;;;;;;;;;;34.72;35.75;100917.75;5002194;28;6852;-74
2023/09/06 10:14:25;;;;;;;;;;;;;;;35.76;33.82;100918.22;4972017;28;7020;-73
2023/09/06 10:16:52;;;;;;;;;;;;;;;36.54;32.07;100916.94;4974482;28;7530;-73
2023/09/06 10:19:19;;;;;;;;;;;;;;;37.23;31.12;100912.31;4972494;28;6991;-72
2023/09/06 10:21:46;;;;;;;;;;;;;;;37.78;30.57;100912.75;4973788;28;6796;-73
2023/09/06 10:24:17;;;;;;;;;;;;;;;38.37;29.58;100912.88;4972626;28;7167;-71
2023/09/06 10:26:43;;;;;;;;;;;;;;;38.91;29.00;100906.84;5003361;28;6851;-74
2023/09/06 10:29:09;;;;;;;;;;;;;;;39.41;28.18;100906.34;4977959;28;6796;-74
2023/09/06 10:31:45;;;;;;;;;;;;;;;39.63;27.25;100905.78;4971637;28;7023;-72
2023/09/06 10:34:13;;;;;;;;;;;;;;;39.81;26.94;100902.81;4973920;28;6812;-72
2023/09/06 10:36:52;;;;;;;;;;;;;;;40.15;26.41;100905.88;4975299;28;6808;-72
2023/09/06 10:39:21;;;;;;;;;;;;;;;40.52;26.16;100908.66;4970745;28;6995;-72
2023/09/06 10:42:11;;;;;;;;;;;;;;;40.96;25.42;100905.59;4967231;28;7418;-71
2023/09/06 10:44:55;;;;;;;;;;;;;;;41.23;25.03;100904.53;4984434;28;7096;-73
2023/09/06 10:47:33;;;;;;;;;;;;;;;41.43;24.36;100904.84;4968688;28;6804;-71
2023/09/06 10:50:20;;;;;;;;;;;;;;;41.52;24.02;100906.84;5000016;28;7023;-72
2023/09/06 10:52:57;;;;;;;;;;;;;;;41.55;23.89;100903.94;4967801;28;7004;-72
2023/09/06 10:55:27;;;;;;;;;;;;;;;41.70;23.57;100904.63;5000448;28;6891;-72
2023/09/06 10:57:59;;;;;;;;;;;;;;;41.87;23.64;100900.63;5000201;28;7201;-72
2023/09/06 11:00:31;;;;;;;;;;;;;;;42.18;23.39;100897.41;4969702;28;6828;-72
2023/09/06 11:03:06;;;;;;;;;;;;;;;42.50;22.42;100902.06;5000389;28;7118;-72
2023/09/06 11:05:37;;;;;;;;;;;;;;;42.50;22.19;100891.31;4984328;28;7238;-73
2023/09/06 11:08:04;;;;;;;;;;;;;;;42.45;21.91;100897.03;4967298;28;6835;-71
2023/09/06 11:10:30;;;;;;;;;;;;;;;42.48;21.61;100894.06;4967616;28;6888;-71
2023/09/06 11:12:56;;;;;;;;;;;;;;;42.56;21.49;100889.94;4969365;28;6783;-72
2023/09/06 11:15:25;;;;;;;;;;;;;;;42.62;21.12;100881.38;4984690;28;6792;-72
2023/09/06 11:17:53;;;;;;;;;;;;;;;42.63;20.86;100891.16;4999286;28;6800;-72
2023/09/06 11:20:19;;;;;;;;;;;;;;;42.71;20.57;100883.31;4969983;28;6807;-72
2023/09/06 11:22:52;;;;;;;;;;;;;;;42.79;20.69;100877.28;4983314;28;6967;-72
2023/09/06 11:25:21;;;;;;;;;;;;;;;42.68;20.41;100880.03;4968514;28;6807;-72
2023/09/06 11:27:48;;;;;;;;;;;;;;;42.64;20.21;100875.84;4951516;28;6857;-72
2023/09/06 11:30:21;;;;;;;;;;;;;;;42.67;20.37;100873.75;4966437;28;6995;-72
2023/09/06 11:32:49;;;;;;;;;;;;;;;42.88;20.19;100873.84;4970916;28;6838;-72
2023/09/06 11:35:15;;;;;;;;;;;;;;;43.15;20.29;100885.19;4972951;28;6815;-72
2023/09/06 11:37:46;;;;;;;;;;;;;;;43.29;19.62;100868.72;4969972;28;7202;-73
2023/09/06 11:40:15;;;;;;;;;;;;;;;43.35;19.67;100869.19;4983748;28;7090;-72
2023/09/06 11:42:47;;;;;;;;;;;;;;;43.15;19.38;100882.47;4968109;28;7138;-74
2023/09/06 11:45:16;;;;;;;;;;;;;;;42.87;19.64;100877.53;4967649;28;7194;-73
2023/09/06 11:47:44;;;;;;;;;;;;;;;42.72;19.82;100879.66;4982383;28;7202;-72
2023/09/06 11:50:12;;;;;;;;;;;;;;;42.67;19.89;100881.84;4982780;28;6812;-72
2023/09/06 11:52:40;;;;;;;;;;;;;;;42.68;19.70;100867.38;4982649;28;7023;-72
2023/09/06 11:55:09;;;;;;;;;;;;;;;42.75;19.65;100874.00;4972453;28;7098;-74
2023/09/06 11:57:38;;;;;;;;;;;;;;;42.70;19.60;100873.53;4967583;28;7941;-72
2023/09/06 12:00:19;;;;;;;;;;;;;;;42.60;19.63;100867.19;4972830;28;6879;-72
2023/09/06 12:02:48;;;;;;;;;;;;;;;42.58;19.39;100859.22;4995263;28;11596;-72
2023/09/06 12:05:16;;;;;;;;;;;;;;;42.63;19.55;100864.22;4955668;28;6994;-72
2023/09/06 12:07:43;;;;;;;;;;;;;;;42.63;19.33;100861.53;4982441;28;7171;-72
2023/09/06 12:10:09;;;;;;;;;;;;;;;42.66;19.72;100855.88;4967360;28;6970;-73
2023/09/06 12:12:42;;;;;;;;;;;;;;;42.77;19.36;100855.03;4982840;28;9044;-72
2023/09/06 12:15:22;;;;;;;;;;;;;;;42.91;19.40;100856.56;4981300;28;7006;-73
2023/09/06 12:17:49;;;;;;;;;;;;;;;42.98;19.01;100855.13;4998100;28;7007;-73
2023/09/06 12:20:19;;;;;;;;;;;;;;;42.90;18.81;100849.47;4965781;28;7056;-74
2023/09/06 12:22:48;;;;;;;;;;;;;;;42.86;18.77;100850.69;4982273;28;7059;-74
2023/09/06 12:25:14;;;;;;;;;;;;;;;42.87;18.74;100852.41;4966895;28;7018;-72
2023/09/06 12:27:44;;;;;;;;;;;;;;;42.96;19.06;100845.44;4966880;28;6799;-72
2023/09/06 12:30:11;;;;;;;;;;;;;;;43.06;19.00;100841.00;4964101;28;6820;-72
2023/09/06 12:32:39;;;;;;;;;;;;;;;43.29;18.62;100838.19;4997033;28;7102;-72
2023/09/06 12:35:07;;;;;;;;;;;;;;;43.47;18.17;100843.03;4997436;28;6812;-71
2023/09/06 12:37:36;;;;;;;;;;;;;;;43.55;17.84;100843.22;4978582;28;7710;-72
2023/09/06 12:40:15;;;;;;;;;;;;;;;43.38;17.62;100836.59;4981338;28;6816;-72
2023/09/06 12:42:43;;;;;;;;;;;;;;;43.12;17.40;100845.00;4998358;28;7007;-71
2023/09/06 12:45:30;;;;;;;;;;;;;;;42.76;17.61;100829.06;4966668;28;6804;-71
2023/09/06 12:47:57;;;;;;;;;;;;;;;42.50;17.43;100834.75;4965829;28;7015;-72
2023/09/06 12:50:24;;;;;;;;;;;;;;;42.51;17.76;100832.91;4964686;28;7094;-72
2023/09/06 12:52:50;;;;;;;;;;;;;;;42.56;17.34;100825.31;4985075;28;6983;-71
2023/09/06 12:55:16;;;;;;;;;;;;;;;42.59;17.25;100823.22;5001349;28;7001;-72
2023/09/06 12:57:42;;;;;;;;;;;;;;;42.56;17.49;100822.63;4990835;28;7065;-72